createdAt,value
2022-10-19T00:01:51.617Z,95729.00
2022-10-19T00:04:18.652Z,95727.94
2022-10-19T00:06:46.636Z,95735.75
2022-10-19T00:09:16.429Z,95736.28
2022-10-19T00:11:46.106Z,95707.16
2022-10-19T00:14:16.699Z,95724.31
2022-10-19T00:16:46.349Z,95722.94
2022-10-19T00:19:19.672Z,95716.78
2022-10-19T00:21:47.176Z,95718.78
2022-10-19T00:24:15.061Z,95723.03
2022-10-19T00:26:42.009Z,95702.16
2022-10-19T00:29:10.305Z,95710.56
2022-10-19T00:31:38.498Z,95703.13
2022-10-19T00:34:05.295Z,95695.47
2022-10-19T00:36:34.640Z,95695.97
2022-10-19T00:39:03.248Z,95691.31
2022-10-19T00:41:32.307Z,95690.13
2022-10-19T00:44:00.491Z,95684.31
2022-10-19T00:46:29.792Z,95680.72
2022-10-19T00:49:22.185Z,95681.84
2022-10-19T00:51:55.678Z,95679.03
2022-10-19T00:54:24.075Z,95675.75
2022-10-19T00:56:53.718Z,95677.25
2022-10-19T00:59:24.948Z,95661.16
2022-10-19T01:01:54.138Z,95664.22
2022-10-19T01:04:23.602Z,95651.44
2022-10-19T01:09:23.618Z,95659.66
2022-10-19T01:12:18.148Z,95657.16
2022-10-19T01:15:15.094Z,95655.78
2022-10-19T01:18:14.025Z,95646.00
2022-10-19T01:21:21.143Z,95624.19
2022-10-19T01:24:23.131Z,95637.22
2022-10-19T01:27:11.888Z,95653.75
2022-10-19T01:30:24.059Z,95648.16
2022-10-19T01:33:16.088Z,95644.63
2022-10-19T01:36:06.417Z,95625.78
2022-10-19T01:38:42.968Z,95632.69
2022-10-19T01:41:18.108Z,95630.88
2022-10-19T01:44:14.048Z,95621.78
2022-10-19T01:47:06.468Z,95624.66
2022-10-19T01:49:44.734Z,95624.00
2022-10-19T01:52:18.287Z,95609.31
2022-10-19T01:54:49.608Z,95627.31
2022-10-19T01:57:23.915Z,95618.91
2022-10-19T01:59:52.505Z,95602.38
2022-10-19T02:02:20.959Z,95620.97
2022-10-19T02:04:50.512Z,95630.31
2022-10-19T02:07:20.549Z,95621.84
2022-10-19T02:09:47.278Z,95624.94
2022-10-19T02:12:16.317Z,95622.72
2022-10-19T02:14:47.431Z,95615.78
2022-10-19T02:17:21.532Z,95615.44
2022-10-19T02:19:48.428Z,95612.50
2022-10-19T02:22:15.160Z,95605.25
2022-10-19T02:24:41.920Z,95611.97
2022-10-19T02:27:10.163Z,95615.44
2022-10-19T02:29:38.038Z,95612.84
2022-10-19T02:32:05.629Z,95610.06
2022-10-19T02:34:33.164Z,95615.69
2022-10-19T02:37:00.047Z,95612.13
2022-10-19T02:39:26.851Z,95612.06
2022-10-19T02:42:20.405Z,95608.38
2022-10-19T02:45:01.307Z,95619.28
2022-10-19T02:47:33.708Z,95616.56
2022-10-19T02:50:01.659Z,95606.38
2022-10-19T02:52:28.501Z,95608.84
2022-10-19T02:54:55.426Z,95608.75
2022-10-19T02:57:24.657Z,95608.13
2022-10-19T02:59:52.584Z,95596.63
2022-10-19T03:02:20.652Z,95597.03
2022-10-19T03:07:21.315Z,95596.06
2022-10-19T03:09:48.482Z,95598.44
2022-10-19T03:12:15.905Z,95592.38
2022-10-19T03:14:42.833Z,95610.38
2022-10-19T03:17:10.307Z,95606.69
2022-10-19T03:19:37.175Z,95607.50
2022-10-19T03:22:04.472Z,95594.88
2022-10-19T03:24:32.357Z,95611.81
2022-10-19T03:26:59.335Z,95614.47
2022-10-19T03:29:26.079Z,95625.81
2022-10-19T03:31:53.112Z,95614.72
2022-10-19T03:34:21.175Z,95611.19
2022-10-19T03:36:48.052Z,95601.72
2022-10-19T03:39:16.119Z,95605.56
2022-10-19T03:41:43.233Z,95598.19
2022-10-19T03:44:11.473Z,95608.97
2022-10-19T03:46:38.946Z,95595.53
2022-10-19T03:49:06.497Z,95604.13
2022-10-19T03:51:33.628Z,95598.41
2022-10-19T03:54:03.549Z,95596.78
2022-10-19T03:56:31.388Z,95601.59
2022-10-19T03:59:00.325Z,95595.66
2022-10-19T04:01:36.095Z,95604.00
2022-10-19T04:04:15.833Z,95602.00
2022-10-19T04:06:45.008Z,95606.78
2022-10-19T04:09:14.419Z,95601.28
2022-10-19T04:11:42.280Z,95600.16
2022-10-19T04:14:13.698Z,95601.16
2022-10-19T04:16:46.159Z,95595.88
2022-10-19T04:19:16.755Z,95595.56
2022-10-19T04:21:44.793Z,95590.97
2022-10-19T04:24:14.520Z,95581.94
2022-10-19T04:26:43.791Z,95582.56
2022-10-19T04:29:11.466Z,95582.94
2022-10-19T04:31:39.605Z,95579.31
2022-10-19T04:34:07.298Z,95575.56
2022-10-19T04:36:35.039Z,95584.34
2022-10-19T04:39:03.651Z,95585.16
2022-10-19T04:41:30.577Z,95579.97
2022-10-19T04:44:00.040Z,95578.75
2022-10-19T04:46:27.820Z,95576.81
2022-10-19T04:48:55.696Z,95581.63
2022-10-19T04:51:24.273Z,95578.25
2022-10-19T04:53:52.499Z,95583.06
2022-10-19T04:56:23.854Z,95584.31
2022-10-19T04:58:50.765Z,95585.66
2022-10-19T05:01:21.832Z,95580.38
2022-10-19T05:03:54.116Z,95583.41
2022-10-19T05:06:21.004Z,95583.34
2022-10-19T05:08:50.121Z,95579.63
2022-10-19T05:11:17.745Z,95584.00
2022-10-19T05:13:45.215Z,95581.28
2022-10-19T05:16:14.531Z,95575.94
2022-10-19T05:18:41.557Z,95583.22
2022-10-19T05:21:11.440Z,95570.81
2022-10-19T05:23:39.387Z,95568.59
2022-10-19T05:26:09.256Z,95567.09
2022-10-19T05:28:36.647Z,95573.66
2022-10-19T05:31:13.420Z,95573.69
2022-10-19T05:33:41.206Z,95583.06
2022-10-19T05:36:22.624Z,95588.28
2022-10-19T05:38:50.356Z,95580.44
2022-10-19T05:41:17.706Z,95570.75
2022-10-19T05:43:48.326Z,95577.81
2022-10-19T05:46:19.561Z,95589.41
2022-10-19T05:48:47.213Z,95578.75
2022-10-19T05:51:16.688Z,95567.47
2022-10-19T05:53:43.769Z,95578.91
2022-10-19T05:56:15.507Z,95573.59
2022-10-19T05:58:42.821Z,95581.22
2022-10-19T06:01:10.782Z,95569.47
2022-10-19T06:03:37.816Z,95580.00
2022-10-19T06:06:06.407Z,95583.59
2022-10-19T06:08:33.372Z,95579.03
2022-10-19T06:11:37.402Z,95583.66
2022-10-19T06:14:07.326Z,95575.09
2022-10-19T06:16:35.109Z,95581.56
2022-10-19T06:19:02.005Z,95596.06
2022-10-19T06:21:31.234Z,95600.09
2022-10-19T06:24:02.480Z,95603.84
2022-10-19T06:26:31.880Z,95597.94
2022-10-19T06:29:00.626Z,95594.91
2022-10-19T06:31:29.874Z,95596.53
2022-10-19T06:33:57.094Z,95600.72
2022-10-19T06:36:26.822Z,95610.38
2022-10-19T06:38:55.965Z,95592.03
2022-10-19T06:41:23.604Z,95602.13
2022-10-19T06:43:54.653Z,95591.28
2022-10-19T06:46:24.142Z,95591.19
2022-10-19T06:48:56.728Z,95589.28
2022-10-19T06:51:26.324Z,95576.69
2022-10-19T06:53:56.618Z,95585.63
2022-10-19T06:56:27.097Z,95575.81
2022-10-19T06:58:54.717Z,95548.34
2022-10-19T07:01:22.476Z,95571.59
2022-10-19T07:03:54.077Z,95562.34
2022-10-19T07:06:23.221Z,95570.06
2022-10-19T07:08:50.009Z,95548.81
2022-10-19T07:11:19.412Z,95560.94
2022-10-19T07:13:46.448Z,95567.22
2022-10-19T07:16:19.605Z,95568.06
2022-10-19T07:18:51.980Z,95558.97
2022-10-19T07:21:19.910Z,95565.41
2022-10-19T07:23:50.126Z,95561.94
2022-10-19T07:26:28.236Z,95556.88
2022-10-19T07:28:56.811Z,95560.44
2022-10-19T07:31:25.330Z,95555.09
2022-10-19T07:33:53.935Z,95555.41
2022-10-19T07:36:22.431Z,95550.94
2022-10-19T07:41:31.698Z,95538.91
2022-10-19T07:43:58.586Z,95529.81
2022-10-19T07:46:29.238Z,95534.13
2022-10-19T07:48:56.337Z,95537.78
2022-10-19T07:51:23.498Z,95530.44
2022-10-19T07:53:50.309Z,95521.47
2022-10-19T07:56:22.506Z,95512.00
2022-10-19T07:58:54.470Z,95509.84
2022-10-19T08:01:27.677Z,95507.28
2022-10-19T08:06:42.897Z,95492.56
2022-10-19T08:09:11.323Z,95497.19
2022-10-19T08:11:42.546Z,95494.44
2022-10-19T08:14:11.557Z,95491.63
2022-10-19T08:16:44.538Z,95491.09
2022-10-19T08:19:14.492Z,95489.41
2022-10-19T08:21:43.632Z,95494.69
2022-10-19T08:24:12.062Z,95498.59
2022-10-19T08:26:40.196Z,95474.81
2022-10-19T08:29:27.723Z,95479.91
2022-10-19T08:31:57.604Z,95476.09
2022-10-19T08:34:24.618Z,95479.53
2022-10-19T08:36:53.643Z,95470.44
2022-10-19T08:39:20.357Z,95475.94
2022-10-19T08:42:08.645Z,95457.06
2022-10-19T08:45:12.404Z,95461.25
2022-10-19T08:48:00.790Z,95454.75
2022-10-19T08:50:39.544Z,95454.38
2022-10-19T08:53:42.726Z,95447.63
2022-10-19T08:56:51.791Z,95438.44
2022-10-19T08:59:30.835Z,95439.72
2022-10-19T09:02:02.396Z,95437.78
2022-10-19T09:04:36.754Z,95436.59
2022-10-19T09:07:24.543Z,95381.00
2022-10-19T09:10:10.803Z,95423.28
2022-10-19T09:12:48.789Z,95434.63
2022-10-19T09:15:19.335Z,95421.97
2022-10-19T09:17:46.501Z,95409.81
2022-10-19T09:20:21.370Z,95419.13
2022-10-19T09:23:17.432Z,95415.00
2022-10-19T09:25:44.328Z,95418.56
2022-10-19T09:28:10.973Z,95411.03
2022-10-19T09:30:41.250Z,95411.53
2022-10-19T09:33:16.350Z,95419.97
2022-10-19T09:35:45.682Z,95410.78
2022-10-19T09:38:16.885Z,95414.13
2022-10-19T09:40:44.012Z,95415.72
2022-10-19T09:43:23.977Z,95408.50
2022-10-19T09:46:19.687Z,95411.13
2022-10-19T09:48:52.302Z,95407.50
2022-10-19T09:51:20.878Z,95399.78
2022-10-19T09:53:55.118Z,95388.22
2022-10-19T09:56:25.211Z,95393.81
2022-10-19T09:58:57.725Z,95391.94
2022-10-19T10:01:43.020Z,95396.41
2022-10-19T10:04:15.321Z,95395.94
2022-10-19T10:06:44.328Z,95391.72
2022-10-19T10:09:19.473Z,95381.41
2022-10-19T10:11:49.894Z,95386.19
2022-10-19T10:14:24.145Z,95382.47
2022-10-19T10:17:02.336Z,95370.31
2022-10-19T10:19:31.678Z,95377.41
2022-10-19T10:21:59.793Z,95338.41
2022-10-19T10:24:31.500Z,95357.09
2022-10-19T10:27:06.332Z,95350.56
2022-10-19T10:29:39.103Z,95353.25
2022-10-19T10:32:17.142Z,95336.50
2022-10-19T10:34:53.066Z,95326.47
2022-10-19T10:37:29.678Z,95328.53
2022-10-19T10:40:00.536Z,95332.72
2022-10-19T10:42:41.326Z,95324.34
2022-10-19T10:45:40.229Z,95320.75
2022-10-19T10:48:25.321Z,95331.53
2022-10-19T10:50:53.118Z,95314.34
2022-10-19T10:53:50.084Z,95314.34
2022-10-19T10:56:35.363Z,95297.78
2022-10-19T10:59:10.683Z,95297.88
2022-10-19T11:01:53.315Z,95295.97
2022-10-19T11:04:25.380Z,95290.09
2022-10-19T11:06:58.381Z,95278.50
2022-10-19T11:09:36.632Z,95282.50
2022-10-19T11:12:09.046Z,95274.81
2022-10-19T11:14:44.383Z,95280.81
2022-10-19T11:17:22.725Z,95277.47
2022-10-19T11:19:52.497Z,95276.44
2022-10-19T11:22:39.426Z,95267.53
2022-10-19T11:25:46.304Z,95262.53
2022-10-19T11:28:48.632Z,95266.66
2022-10-19T11:31:36.002Z,95256.78
2022-10-19T11:34:37.910Z,95254.50
2022-10-19T11:37:10.415Z,95251.72
2022-10-19T11:40:06.745Z,95250.94
2022-10-19T11:43:06.949Z,95252.72
2022-10-19T11:45:55.019Z,95255.13
2022-10-19T11:48:40.411Z,95246.91
2022-10-19T11:51:33.801Z,95235.75
2022-10-19T11:54:16.623Z,95220.56
2022-10-19T11:57:20.617Z,95224.00
2022-10-19T12:00:14.945Z,95211.06
2022-10-19T12:03:15.360Z,95218.00
2022-10-19T12:06:03.341Z,95202.09
2022-10-19T12:08:40.812Z,95181.84
2022-10-19T12:11:17.872Z,95191.34
2022-10-19T12:14:00.695Z,95181.19
2022-10-19T12:16:50.738Z,95196.25
2022-10-19T12:19:32.772Z,95189.75
2022-10-19T12:22:03.575Z,95180.03
2022-10-19T12:24:33.711Z,95191.63
2022-10-19T12:27:01.846Z,95189.41
2022-10-19T12:29:34.504Z,95180.94
2022-10-19T12:32:03.049Z,95177.78
2022-10-19T12:34:35.855Z,95192.75
2022-10-19T12:37:28.880Z,95185.31
2022-10-19T12:40:23.598Z,95176.72
2022-10-19T12:42:59.516Z,95177.50
2022-10-19T12:45:32.300Z,95174.00
2022-10-19T12:48:08.031Z,95180.69
2022-10-19T12:50:50.446Z,95177.91
2022-10-19T12:53:30.995Z,95176.91
2022-10-19T12:56:10.088Z,95172.25
2022-10-19T12:58:47.856Z,95176.91
2022-10-19T13:01:22.141Z,95167.00
2022-10-19T13:03:54.010Z,95158.00
2022-10-19T13:06:23.586Z,95172.81
2022-10-19T13:08:53.445Z,95168.53
2022-10-19T13:11:20.924Z,95161.91
2022-10-19T13:13:56.943Z,95161.22
2022-10-19T13:16:30.107Z,95154.91
2022-10-19T13:19:00.109Z,95153.00
2022-10-19T13:21:49.900Z,95150.22
2022-10-19T13:24:23.666Z,95155.81
2022-10-19T13:27:02.641Z,95151.00
2022-10-19T13:29:49.838Z,95148.13
2022-10-19T13:32:44.535Z,95147.03
2022-10-19T13:35:34.337Z,95159.09
2022-10-19T13:38:12.860Z,95157.03
2022-10-19T13:41:09.147Z,95156.53
2022-10-19T13:43:38.535Z,95158.16
2022-10-19T13:46:20.461Z,95148.25
2022-10-19T13:49:02.521Z,95144.59
2022-10-19T13:51:39.262Z,95133.38
2022-10-19T13:54:22.111Z,95142.41
2022-10-19T13:57:26.151Z,95134.03
2022-10-19T14:00:30.387Z,95130.41
2022-10-19T14:03:49.387Z,95125.38
2022-10-19T14:06:35.619Z,95125.63
2022-10-19T14:09:29.580Z,95121.31
2022-10-19T14:12:08.158Z,95117.44
2022-10-19T14:14:43.869Z,95123.97
2022-10-19T14:17:15.577Z,95130.38
2022-10-19T14:19:47.486Z,95114.78
2022-10-19T14:22:18.723Z,95122.66
2022-10-19T14:24:45.672Z,95127.88
2022-10-19T14:27:19.247Z,95126.84
2022-10-19T14:29:50.819Z,95127.78
2022-10-19T14:32:21.317Z,95130.69
2022-10-19T14:34:48.792Z,95137.78
2022-10-19T14:37:21.043Z,95134.97
2022-10-19T14:40:06.214Z,95136.91
2022-10-19T14:42:42.867Z,95131.00
2022-10-19T14:45:23.084Z,95126.06
2022-10-19T14:47:59.003Z,95142.34
2022-10-19T14:50:45.445Z,95142.94
2022-10-19T14:53:40.206Z,95146.06
2022-10-19T14:56:23.659Z,95153.28
2022-10-19T14:58:59.338Z,95156.78
2022-10-19T15:01:26.443Z,95163.84
2022-10-19T15:03:53.773Z,95170.53
2022-10-19T15:06:27.344Z,95161.84
2022-10-19T15:09:12.034Z,95162.97
2022-10-19T15:11:47.521Z,95164.13
2022-10-19T15:14:24.599Z,95170.31
2022-10-19T15:16:56.050Z,95181.38
2022-10-19T15:19:29.087Z,95178.13
2022-10-19T15:22:21.836Z,95186.41
2022-10-19T15:25:06.767Z,95182.91
2022-10-19T15:27:39.649Z,95188.13
2022-10-19T15:30:31.855Z,95195.84
2022-10-19T15:33:01.643Z,95193.22
2022-10-19T15:35:34.430Z,95202.06
2022-10-19T15:38:17.070Z,95209.66
2022-10-19T15:40:46.302Z,95202.81
2022-10-19T15:43:33.068Z,95213.84
2022-10-19T15:46:21.322Z,95215.91
2022-10-19T15:48:55.329Z,95222.69
2022-10-19T15:51:25.600Z,95225.75
2022-10-19T15:53:54.557Z,95227.47
2022-10-19T15:56:23.294Z,95228.53
2022-10-19T15:58:55.496Z,95236.03
2022-10-19T16:01:29.479Z,95224.13
2022-10-19T16:03:56.933Z,95242.41
2022-10-19T16:06:27.970Z,95240.47
2022-10-19T16:08:55.035Z,95251.06
2022-10-19T16:11:23.410Z,95243.00
2022-10-19T16:13:51.653Z,95246.44
2022-10-19T16:16:38.899Z,95250.81
2022-10-19T16:19:05.803Z,95259.88
2022-10-19T16:21:36.770Z,95260.00
2022-10-19T16:24:03.996Z,95263.63
2022-10-19T16:26:32.167Z,95268.19
2022-10-19T16:29:00.719Z,95266.34
2022-10-19T16:31:27.577Z,95277.00
2022-10-19T16:33:54.439Z,95295.03
2022-10-19T16:36:21.347Z,95292.66
2022-10-19T16:38:48.463Z,95293.63
2022-10-19T16:41:16.196Z,95296.44
2022-10-19T16:43:42.944Z,95310.03
2022-10-19T16:46:09.932Z,95311.06
2022-10-19T16:48:36.972Z,95313.34
2022-10-19T16:51:06.898Z,95323.09
2022-10-19T16:53:35.334Z,95326.31
2022-10-19T16:56:07.597Z,95323.56
2022-10-19T16:58:34.796Z,95323.16
2022-10-19T17:01:10.547Z,95327.91
2022-10-19T17:03:37.695Z,95336.09
2022-10-19T17:06:08.683Z,95339.50
2022-10-19T17:09:02.343Z,95334.38
2022-10-19T17:11:31.909Z,95334.44
2022-10-19T17:14:02.056Z,95338.28
2022-10-19T17:16:31.216Z,95338.34
2022-10-19T17:18:59.535Z,95339.69
2022-10-19T17:21:28.812Z,95335.59
2022-10-19T17:23:58.921Z,95348.97
2022-10-19T17:26:37.397Z,95349.75
2022-10-19T17:29:05.050Z,95342.72
2022-10-19T17:31:32.003Z,95344.44
2022-10-19T17:34:00.908Z,95349.75
2022-10-19T17:36:30.757Z,95340.78
2022-10-19T17:39:00.493Z,95342.88
2022-10-19T17:41:28.671Z,95340.25
2022-10-19T17:43:56.932Z,95346.38
2022-10-19T17:46:30.216Z,95354.19
2022-10-19T17:48:58.259Z,95353.50
2022-10-19T17:51:27.629Z,95343.25
2022-10-19T17:53:58.970Z,95356.19
2022-10-19T17:56:26.603Z,95349.94
2022-10-19T17:58:54.031Z,95340.69
2022-10-19T18:01:22.111Z,95335.91
2022-10-19T18:03:49.623Z,95350.59
2022-10-19T18:06:16.600Z,95351.81
2022-10-19T18:08:47.029Z,95354.22
2022-10-19T18:11:16.697Z,95357.53
2022-10-19T18:13:45.211Z,95353.63
2022-10-19T18:16:15.216Z,95351.69
2022-10-19T18:18:45.723Z,95361.19
2022-10-19T18:21:14.799Z,95356.84
2022-10-19T18:23:41.908Z,95343.56
2022-10-19T18:26:12.316Z,95355.53
2022-10-19T18:28:39.803Z,95347.09
2022-10-19T18:31:20.839Z,95353.22
2022-10-19T18:33:50.392Z,95358.16
2022-10-19T18:36:17.082Z,95358.41
2022-10-19T18:38:43.887Z,95363.81
2022-10-19T18:43:44.256Z,95364.81
2022-10-19T18:46:10.984Z,95363.94
2022-10-19T18:48:38.261Z,95359.91
2022-10-19T18:51:08.307Z,95378.59
2022-10-19T18:53:35.265Z,95383.72
2022-10-19T18:56:05.667Z,95381.28
2022-10-19T18:58:33.068Z,95376.22
2022-10-19T19:01:04.036Z,95378.97
2022-10-19T19:03:31.002Z,95392.19
2022-10-19T19:06:02.207Z,95391.91
2022-10-19T19:08:30.649Z,95388.03
2022-10-19T19:10:57.882Z,95388.03
2022-10-19T19:13:24.807Z,95405.19
2022-10-19T19:16:00.618Z,95405.44
2022-10-19T19:18:27.561Z,95416.97
2022-10-19T19:20:55.495Z,95412.03
2022-10-19T19:23:22.212Z,95412.78
2022-10-19T19:25:49.019Z,95412.59
2022-10-19T19:28:15.895Z,95405.63
2022-10-19T19:30:45.097Z,95422.16
2022-10-19T19:33:13.260Z,95415.03
2022-10-19T19:35:44.145Z,95431.31
2022-10-19T19:38:11.774Z,95418.53
2022-10-19T19:40:41.219Z,95421.44
2022-10-19T19:43:09.305Z,95418.63
2022-10-19T19:45:37.133Z,95436.00
2022-10-19T19:48:06.023Z,95430.75
2022-10-19T19:50:33.590Z,95447.50
2022-10-19T19:53:02.236Z,95439.41
2022-10-19T19:55:30.878Z,95447.59
2022-10-19T19:57:58.980Z,95449.38
2022-10-19T20:00:25.784Z,95445.53
2022-10-19T20:02:57.227Z,95446.38
2022-10-19T20:05:25.721Z,95451.72
2022-10-19T20:07:52.926Z,95460.69
2022-10-19T20:10:19.904Z,95461.63
2022-10-19T20:12:47.266Z,95461.13
2022-10-19T20:15:16.260Z,95453.81
2022-10-19T20:17:43.696Z,95463.91
2022-10-19T20:20:12.319Z,95463.50
2022-10-19T20:22:39.201Z,95459.03
2022-10-19T20:25:06.629Z,95452.94
2022-10-19T20:27:36.713Z,95454.53
2022-10-19T20:30:04.277Z,95458.28
2022-10-19T20:32:31.846Z,95465.69
2022-10-19T20:34:58.543Z,95452.25
2022-10-19T20:37:26.072Z,95467.25
2022-10-19T20:39:52.805Z,95461.56
2022-10-19T20:42:19.610Z,95468.66
2022-10-19T20:44:46.455Z,95472.34
2022-10-19T20:47:13.154Z,95464.00
2022-10-19T20:49:40.901Z,95476.78
2022-10-19T20:52:08.032Z,95473.41
2022-10-19T20:54:35.946Z,95474.72
2022-10-19T20:57:02.829Z,95464.50
2022-10-19T20:59:31.485Z,95474.47
2022-10-19T21:01:58.296Z,95479.72
2022-10-19T21:04:25.727Z,95472.91
2022-10-19T21:06:52.914Z,95472.22
2022-10-19T21:09:38.736Z,95466.72
2022-10-19T21:12:05.510Z,95471.22
2022-10-19T21:14:32.409Z,95456.03
2022-10-19T21:17:00.321Z,95477.88
2022-10-19T21:19:29.330Z,95478.16
2022-10-19T21:22:01.782Z,95477.47
2022-10-19T21:24:33.242Z,95472.22
2022-10-19T21:27:01.551Z,95485.81
2022-10-19T21:29:28.356Z,95485.97
2022-10-19T21:31:55.095Z,95484.72
2022-10-19T21:34:27.510Z,95489.84
2022-10-19T21:36:55.422Z,95486.25
2022-10-19T21:39:22.682Z,95490.47
2022-10-19T21:41:50.298Z,95491.50
2022-10-19T21:44:18.487Z,95495.56
2022-10-19T21:46:47.742Z,95489.13
2022-10-19T21:49:15.040Z,95505.31
2022-10-19T21:51:50.179Z,95496.66
2022-10-19T21:54:19.556Z,95503.19
2022-10-19T21:56:46.867Z,95508.50
2022-10-19T21:59:14.189Z,95505.13
2022-10-19T22:01:41.852Z,95502.16
2022-10-19T22:04:12.658Z,95500.59
2022-10-19T22:06:40.692Z,95510.50
2022-10-19T22:09:09.482Z,95507.25
2022-10-19T22:11:36.221Z,95497.75
2022-10-19T22:14:04.688Z,95497.22
2022-10-19T22:16:32.916Z,95508.19
2022-10-19T22:19:51.292Z,95507.34
2022-10-19T22:22:18.094Z,95506.72
2022-10-19T22:24:44.888Z,95504.41
2022-10-19T22:27:11.893Z,95508.91
2022-10-19T22:29:38.586Z,95515.91
2022-10-19T22:32:05.572Z,95514.94
2022-10-19T22:34:32.381Z,95516.94
2022-10-19T22:37:27.144Z,95526.00
2022-10-19T22:39:54.028Z,95512.00
2022-10-19T22:42:20.717Z,95521.41
2022-10-19T22:44:47.443Z,95515.31
2022-10-19T22:47:14.199Z,95517.56
2022-10-19T22:49:40.997Z,95509.91
2022-10-19T22:52:07.738Z,95517.38
2022-10-19T22:54:34.983Z,95511.50
2022-10-19T22:57:02.887Z,95516.16
2022-10-19T22:59:29.671Z,95522.03
2022-10-19T23:01:56.504Z,95508.19
2022-10-19T23:04:23.420Z,95514.16
2022-10-19T23:06:50.145Z,95515.38
2022-10-19T23:09:16.930Z,95517.56
2022-10-19T23:11:43.664Z,95518.13
2022-10-19T23:14:10.418Z,95518.88
2022-10-19T23:16:37.352Z,95512.69
2022-10-19T23:19:04.055Z,95528.41
2022-10-19T23:21:31.021Z,95530.44
2022-10-19T23:23:57.894Z,95520.41
2022-10-19T23:26:25.469Z,95522.78
2022-10-19T23:28:52.684Z,95527.88
2022-10-19T23:31:26.123Z,95529.88
2022-10-19T23:33:54.813Z,95532.88
2022-10-19T23:36:23.938Z,95528.13
2022-10-19T23:38:52.223Z,95527.94
2022-10-19T23:41:20.360Z,95530.66
2022-10-19T23:43:47.731Z,95517.44
2022-10-19T23:46:14.822Z,95529.09
2022-10-19T23:48:42.217Z,95536.28
2022-10-19T23:51:15.131Z,95530.41
2022-10-19T23:53:44.945Z,95538.53
2022-10-19T23:56:18.142Z,95545.25
2022-10-19T23:58:45.551Z,95554.69
